Arland, Wisconsin
Current Conditions -  °F | °C
As of 6:55 PM on Wednesday 22 Oct 2014 (Local Time) from KUBE Reporting Station
Scattered Clouds Scattered Clouds  
Wind Chill: 52°   Ceiling: Unl
Heat Index: 52°   Visibility: 10mi
Dew Point: 32°   Wind: 10mph
Humidity: 47%   Direction: 150°SSE
Pressure: 30.09"   Gusts: NA
Location:  45.3064°N, 92.1345°W
Report Text: KUBE 222355Z AUTO 15009KT 10SM SCT060 SCT075 SCT100 11/00 A3009 RMK AO2
Loading
Personal Weather Stations






























Interactive Weather Map New forecast layout! Learn more

10-Day Weather Forecast

Advertisements
Track Severe Weather on mobile